createdAt,value
2022-11-03T00:00:34.049Z,86.33
2022-11-03T00:03:20.144Z,86.43
2022-11-03T00:06:05.737Z,86.08
2022-11-03T00:08:50.745Z,85.98
2022-11-03T00:11:38.303Z,85.77
2022-11-03T00:14:23.534Z,85.50
2022-11-03T00:17:09.255Z,85.53
2022-11-03T00:19:54.498Z,85.48
2022-11-03T00:22:39.566Z,85.14
2022-11-03T00:25:24.605Z,85.06
2022-11-03T00:28:09.706Z,84.79
2022-11-03T00:30:54.591Z,84.34
2022-11-03T00:33:41.053Z,84.48
2022-11-03T00:36:27.573Z,84.52
2022-11-03T00:39:12.625Z,84.56
2022-11-03T00:41:57.864Z,84.61
2022-11-03T00:44:42.781Z,84.59
2022-11-03T00:47:31.002Z,84.64
2022-11-03T00:50:16.035Z,84.45
2022-11-03T00:53:00.933Z,84.44
2022-11-03T00:55:49.868Z,84.30
2022-11-03T00:58:35.054Z,84.14
2022-11-03T01:01:29.230Z,84.12
2022-11-03T01:04:16.735Z,84.53
2022-11-03T01:07:02.609Z,84.61
2022-11-03T01:09:47.965Z,84.85
2022-11-03T01:12:33.127Z,84.65
2022-11-03T01:15:18.402Z,84.82
2022-11-03T01:18:04.074Z,84.89
2022-11-03T01:20:57.119Z,85.06
2022-11-03T01:23:43.161Z,85.17
2022-11-03T01:26:28.537Z,85.17
2022-11-03T01:29:13.995Z,85.50
2022-11-03T01:31:59.231Z,85.46
2022-11-03T01:34:44.149Z,85.88
2022-11-03T01:37:28.948Z,86.20
2022-11-03T01:40:14.395Z,86.30
2022-11-03T01:43:18.225Z,86.18
2022-11-03T01:46:24.402Z,86.18
2022-11-03T01:49:22.207Z,86.15
2022-11-03T01:52:31.231Z,86.27
2022-11-03T01:55:21.373Z,86.31
2022-11-03T01:58:08.231Z,86.44
2022-11-03T02:00:56.102Z,86.87
2022-11-03T02:03:47.614Z,87.13
2022-11-03T02:06:32.788Z,87.05
2022-11-03T02:09:19.395Z,87.44
2022-11-03T02:12:05.463Z,87.55
2022-11-03T02:15:02.098Z,87.83
2022-11-03T02:17:50.043Z,88.17
2022-11-03T02:20:35.463Z,88.30
2022-11-03T02:23:32.754Z,88.46
2022-11-03T02:26:18.537Z,88.52
2022-11-03T02:29:03.655Z,88.61
2022-11-03T02:31:58.711Z,88.77
2022-11-03T02:34:54.484Z,89.36
2022-11-03T02:37:47.955Z,89.55
2022-11-03T02:40:39.213Z,89.46
2022-11-03T02:43:25.949Z,89.86
2022-11-03T02:46:14.550Z,89.78
2022-11-03T02:48:59.690Z,90.15
2022-11-03T02:51:44.957Z,90.12
2022-11-03T02:54:36.229Z,90.62
2022-11-03T02:57:29.369Z,90.73
2022-11-03T03:00:16.009Z,90.60
2022-11-03T03:03:37.458Z,91.12
2022-11-03T03:06:36.596Z,91.04
2022-11-03T03:09:26.259Z,91.10
2022-11-03T03:12:15.927Z,91.33
2022-11-03T03:15:03.740Z,91.10
2022-11-03T03:17:53.927Z,91.43
2022-11-03T03:21:04.325Z,91.28
2022-11-03T03:23:58.409Z,91.94
2022-11-03T03:26:47.872Z,91.97
2022-11-03T03:29:40.354Z,92.36
2022-11-03T03:32:28.409Z,92.42
2022-11-03T03:35:22.645Z,92.82
2022-11-03T03:38:14.524Z,92.98
2022-11-03T03:41:00.244Z,93.25
2022-11-03T03:43:45.496Z,93.16
2022-11-03T03:46:58.952Z,93.38
2022-11-03T03:49:44.129Z,93.37
2022-11-03T03:52:30.370Z,93.76
2022-11-03T03:55:21.783Z,94.02
2022-11-03T03:58:10.897Z,93.85
2022-11-03T04:00:56.006Z,94.12
2022-11-03T04:03:41.455Z,94.00
2022-11-03T04:06:26.940Z,94.16
2022-11-03T04:09:12.124Z,94.47
2022-11-03T04:11:57.524Z,94.65
2022-11-03T04:14:42.527Z,95.02
2022-11-03T04:17:27.912Z,94.44
2022-11-03T04:20:13.541Z,94.39
2022-11-03T04:22:58.891Z,94.95
2022-11-03T04:26:02.218Z,95.41
2022-11-03T04:28:47.482Z,95.65
2022-11-03T04:31:35.675Z,96.08
2022-11-03T04:34:21.009Z,96.36
2022-11-03T04:37:11.988Z,96.62
2022-11-03T04:40:01.001Z,97.07
2022-11-03T04:42:46.595Z,97.37
2022-11-03T04:45:33.797Z,97.39
2022-11-03T04:48:21.831Z,97.74
2022-11-03T04:51:15.387Z,98.02
2022-11-03T04:54:13.502Z,98.10
2022-11-03T04:56:58.720Z,98.15
2022-11-03T04:59:46.754Z,98.34
2022-11-03T05:02:32.102Z,98.42
2022-11-03T05:05:25.620Z,98.59
2022-11-03T05:08:12.058Z,98.73
2022-11-03T05:10:59.576Z,98.97
2022-11-03T05:13:44.695Z,99.29
2022-11-03T05:16:31.452Z,99.55
2022-11-03T05:19:27.175Z,99.66
2022-11-03T05:22:16.310Z,99.68
2022-11-03T05:25:21.627Z,99.96
2022-11-03T05:28:15.392Z,100.00
2022-11-03T05:31:00.579Z,99.98
2022-11-03T05:33:47.369Z,100.00
2022-11-03T05:36:33.475Z,100.00
2022-11-03T05:39:27.957Z,100.00
2022-11-03T05:42:25.170Z,100.00
2022-11-03T05:45:13.587Z,100.00
2022-11-03T05:48:00.242Z,100.00
2022-11-03T05:50:45.791Z,100.00
2022-11-03T05:53:36.380Z,100.00
2022-11-03T05:56:23.900Z,100.00
2022-11-03T05:59:13.709Z,100.00
2022-11-03T06:02:00.371Z,100.00
2022-11-03T06:04:45.869Z,100.00
2022-11-03T06:07:31.777Z,100.00
2022-11-03T06:10:29.339Z,100.00
2022-11-03T06:13:17.350Z,99.78
2022-11-03T06:16:33.756Z,99.31
2022-11-03T06:19:37.770Z,98.90
2022-11-03T06:22:35.221Z,98.70
2022-11-03T06:25:27.689Z,98.25
2022-11-03T06:28:34.847Z,98.16
2022-11-03T06:31:28.149Z,97.78
2022-11-03T06:34:30.259Z,97.35
2022-11-03T06:37:41.408Z,97.24
2022-11-03T06:40:34.937Z,96.74
2022-11-03T06:43:40.597Z,96.47
2022-11-03T06:46:26.547Z,96.36
2022-11-03T06:49:29.827Z,96.49
2022-11-03T06:52:24.964Z,96.40
2022-11-03T06:55:28.454Z,96.38
2022-11-03T06:58:35.842Z,96.83
2022-11-03T07:01:32.266Z,97.15
2022-11-03T07:04:26.751Z,96.92
2022-11-03T07:07:19.457Z,96.48
2022-11-03T07:10:05.131Z,96.50
2022-11-03T07:12:50.722Z,96.50
2022-11-03T07:15:37.096Z,95.90
2022-11-03T07:18:34.120Z,96.54
2022-11-03T07:21:46.569Z,96.14
2022-11-03T07:24:54.650Z,96.02
2022-11-03T07:27:40.401Z,95.76
2022-11-03T07:30:36.567Z,95.31
2022-11-03T07:33:27.301Z,95.18
2022-11-03T07:36:18.548Z,94.64
2022-11-03T07:39:03.808Z,94.39
2022-11-03T07:41:49.396Z,94.06
2022-11-03T07:44:35.330Z,93.49
2022-11-03T07:47:24.879Z,93.45
2022-11-03T07:50:24.165Z,92.52
2022-11-03T07:53:26.243Z,92.50
2022-11-03T07:56:35.396Z,92.30
2022-11-03T07:59:35.425Z,92.13
2022-11-03T08:05:34.750Z,90.89
2022-11-03T08:08:19.896Z,90.34
2022-11-03T08:11:05.628Z,89.81
2022-11-03T08:13:51.490Z,89.14
2022-11-03T08:16:36.928Z,88.42
2022-11-03T08:19:22.336Z,88.10
2022-11-03T08:22:08.240Z,87.93
2022-11-03T08:24:53.236Z,87.87
2022-11-03T08:27:38.394Z,87.83
2022-11-03T08:30:23.823Z,87.40
2022-11-03T08:33:09.424Z,87.05
2022-11-03T08:35:55.052Z,86.69
2022-11-03T08:38:40.555Z,85.80
2022-11-03T08:41:25.728Z,85.79
2022-11-03T08:44:41.763Z,86.04
2022-11-03T08:47:26.983Z,86.05
2022-11-03T08:50:13.025Z,85.75
2022-11-03T08:56:58.723Z,86.16
2022-11-03T08:59:44.506Z,86.13
2022-11-03T09:02:29.918Z,85.82
2022-11-03T09:05:15.613Z,85.64
2022-11-03T09:11:06.480Z,85.00
2022-11-03T09:13:51.888Z,84.24
2022-11-03T09:16:36.995Z,83.45
2022-11-03T09:19:22.623Z,82.97
2022-11-03T09:22:08.071Z,82.63
2022-11-03T09:24:53.443Z,82.28
2022-11-03T09:27:39.137Z,82.24
2022-11-03T09:30:24.842Z,81.78
2022-11-03T09:33:10.164Z,81.69
2022-11-03T09:35:55.524Z,82.09
2022-11-03T09:38:41.260Z,81.82
2022-11-03T09:41:44.254Z,81.68
2022-11-03T09:44:33.494Z,81.25
2022-11-03T09:47:33.498Z,80.65
2022-11-03T09:50:20.385Z,80.92
2022-11-03T09:53:06.549Z,80.86
2022-11-03T09:55:52.336Z,80.88
2022-11-03T09:58:39.408Z,80.94
2022-11-03T10:01:24.911Z,80.73
2022-11-03T10:04:12.491Z,80.54
2022-11-03T10:06:59.441Z,80.24
2022-11-03T10:09:51.168Z,80.44
2022-11-03T10:12:39.428Z,80.37
2022-11-03T10:15:26.598Z,79.57
2022-11-03T10:18:12.713Z,80.11
2022-11-03T10:21:04.278Z,79.77
2022-11-03T10:23:49.524Z,79.22
2022-11-03T10:26:45.302Z,78.65
2022-11-03T10:29:32.433Z,78.72
2022-11-03T10:32:30.678Z,79.02
2022-11-03T10:35:33.871Z,78.86
2022-11-03T10:38:32.566Z,79.09
2022-11-03T10:41:26.223Z,78.85
2022-11-03T10:44:11.897Z,78.47
2022-11-03T10:47:02.482Z,78.40
2022-11-03T10:49:48.083Z,78.20
2022-11-03T10:55:24.839Z,77.97
2022-11-03T10:58:17.027Z,78.02
2022-11-03T11:01:02.339Z,77.95
2022-11-03T11:03:48.353Z,77.07
2022-11-03T11:06:34.118Z,76.76
2022-11-03T11:09:25.580Z,76.93
2022-11-03T11:12:25.006Z,77.25
2022-11-03T11:15:34.997Z,77.35
2022-11-03T11:18:29.857Z,76.80
2022-11-03T11:21:15.485Z,77.43
2022-11-03T11:24:01.013Z,77.72
2022-11-03T11:26:46.527Z,78.01
2022-11-03T11:29:36.197Z,77.74
2022-11-03T11:32:41.996Z,77.03
2022-11-03T11:35:27.383Z,77.01
2022-11-03T11:38:49.752Z,77.17
2022-11-03T11:42:06.518Z,77.01
2022-11-03T11:44:54.358Z,77.38
2022-11-03T11:47:45.840Z,77.21
2022-11-03T11:50:34.993Z,76.84
2022-11-03T11:53:27.462Z,77.13
2022-11-03T11:56:18.382Z,77.24
2022-11-03T11:59:03.990Z,77.80
2022-11-03T12:01:51.488Z,77.89
2022-11-03T12:04:37.132Z,77.51
2022-11-03T12:07:41.381Z,77.81
2022-11-03T12:10:30.384Z,77.34
2022-11-03T12:13:48.415Z,76.89
2022-11-03T12:16:35.582Z,76.82
2022-11-03T12:19:41.876Z,77.50
2022-11-03T12:22:27.737Z,77.66
2022-11-03T12:25:36.450Z,77.74
2022-11-03T12:28:37.325Z,77.71
2022-11-03T12:31:22.673Z,77.89
2022-11-03T12:34:08.098Z,78.13
2022-11-03T12:36:56.323Z,78.37
2022-11-03T12:39:42.457Z,78.81
2022-11-03T12:42:41.494Z,79.25
2022-11-03T12:45:29.719Z,79.58
2022-11-03T12:48:15.201Z,79.44
2022-11-03T12:51:07.489Z,79.09
2022-11-03T12:53:53.764Z,78.97
2022-11-03T12:56:43.508Z,77.43
2022-11-03T12:59:30.109Z,75.46
2022-11-03T13:02:16.324Z,74.30
2022-11-03T13:05:02.183Z,73.35
2022-11-03T13:07:48.469Z,74.24
2022-11-03T13:10:34.338Z,75.80
2022-11-03T13:13:20.308Z,76.56
2022-11-03T13:16:06.529Z,75.89
2022-11-03T13:18:51.896Z,74.48
2022-11-03T13:21:37.848Z,75.67
2022-11-03T13:24:23.661Z,74.43
2022-11-03T13:27:14.939Z,72.44
2022-11-03T13:30:03.849Z,74.22
2022-11-03T13:32:52.701Z,73.36
2022-11-03T13:35:38.978Z,72.32
2022-11-03T13:38:25.270Z,72.49
2022-11-03T13:41:10.887Z,74.06
2022-11-03T13:43:56.648Z,75.24
2022-11-03T13:46:42.572Z,75.54
2022-11-03T13:50:07.915Z,76.06
2022-11-03T13:52:34.705Z,76.80
2022-11-03T14:01:32.855Z,78.57
2022-11-03T14:07:24.508Z,78.33
2022-11-03T14:10:10.527Z,78.26
2022-11-03T14:12:56.316Z,78.25
2022-11-03T14:15:41.832Z,78.33
2022-11-03T14:18:27.306Z,77.91
2022-11-03T14:21:12.753Z,78.22
2022-11-03T14:23:58.557Z,79.09
2022-11-03T14:26:44.070Z,78.88
2022-11-03T14:29:29.813Z,79.02
2022-11-03T14:32:16.145Z,78.69
2022-11-03T14:35:01.888Z,79.12
2022-11-03T14:37:47.202Z,79.66
2022-11-03T14:40:32.632Z,79.21
2022-11-03T14:43:18.155Z,79.74
2022-11-03T14:46:03.884Z,79.42
2022-11-03T14:48:49.474Z,79.31
2022-11-03T14:51:34.946Z,79.10
2022-11-03T14:54:19.942Z,79.53
2022-11-03T14:57:05.133Z,79.82
2022-11-03T14:59:55.207Z,79.72
2022-11-03T15:02:49.591Z,79.89
2022-11-03T15:05:35.102Z,80.04
2022-11-03T15:08:26.864Z,80.37
2022-11-03T15:11:12.388Z,80.38
2022-11-03T15:13:57.765Z,80.75
2022-11-03T15:16:43.103Z,80.56
2022-11-03T15:19:28.118Z,80.67
2022-11-03T15:22:13.124Z,80.70
2022-11-03T15:25:13.996Z,80.73
2022-11-03T15:28:00.398Z,80.32
2022-11-03T15:30:45.849Z,80.28
2022-11-03T15:33:31.413Z,80.06
2022-11-03T15:36:16.758Z,80.11
2022-11-03T15:39:02.091Z,79.78
2022-11-03T15:41:47.359Z,79.86
2022-11-03T15:44:32.408Z,79.99
2022-11-03T15:47:20.982Z,80.07
2022-11-03T15:50:08.003Z,79.72
2022-11-03T15:52:54.698Z,79.66
2022-11-03T15:55:39.913Z,79.24
2022-11-03T15:58:25.301Z,79.63
2022-11-03T16:01:10.835Z,79.83
2022-11-03T16:03:55.934Z,79.58
2022-11-03T16:09:46.496Z,79.69
2022-11-03T16:12:31.837Z,79.71
2022-11-03T16:15:17.291Z,79.22
2022-11-03T16:18:02.474Z,79.18
2022-11-03T16:20:47.741Z,79.07
2022-11-03T16:23:32.913Z,78.79
2022-11-03T16:26:18.064Z,78.91
2022-11-03T16:29:03.573Z,79.46
2022-11-03T16:31:48.877Z,79.47
2022-11-03T16:34:34.662Z,79.43
2022-11-03T16:37:19.896Z,79.19
2022-11-03T16:40:06.062Z,78.98
2022-11-03T16:42:51.078Z,79.72
2022-11-03T16:45:38.122Z,80.20
2022-11-03T16:48:25.389Z,81.08
2022-11-03T16:51:10.648Z,82.55
2022-11-03T16:53:55.796Z,83.33
2022-11-03T16:56:40.827Z,83.97
2022-11-03T16:59:26.430Z,83.70
2022-11-03T17:02:16.316Z,84.07
2022-11-03T17:05:06.142Z,83.60
2022-11-03T17:07:53.907Z,83.28
2022-11-03T17:10:40.232Z,83.46
2022-11-03T17:13:25.584Z,83.44
2022-11-03T17:16:10.530Z,83.20
2022-11-03T17:18:56.062Z,82.87
2022-11-03T17:21:41.620Z,83.31
2022-11-03T17:24:26.437Z,83.02
2022-11-03T17:27:15.406Z,83.49
2022-11-03T17:30:04.547Z,84.01
2022-11-03T17:32:52.452Z,84.29
2022-11-03T17:35:42.089Z,85.30
2022-11-03T17:38:28.249Z,86.23
2022-11-03T17:41:18.963Z,87.00
2022-11-03T17:44:09.333Z,88.02
2022-11-03T17:46:54.446Z,89.36
2022-11-03T17:49:39.409Z,89.82
2022-11-03T17:52:28.594Z,90.75
2022-11-03T17:55:30.235Z,92.02
2022-11-03T17:58:26.314Z,93.06
2022-11-03T18:01:13.033Z,92.78
2022-11-03T18:03:58.262Z,93.48
2022-11-03T18:06:45.807Z,93.82
2022-11-03T18:09:31.482Z,95.36
2022-11-03T18:12:20.747Z,95.83
2022-11-03T18:15:11.070Z,96.32
2022-11-03T18:17:56.843Z,98.53
2022-11-03T18:20:51.793Z,99.92
2022-11-03T18:23:38.792Z,100.00
2022-11-03T18:26:26.197Z,100.00
2022-11-03T18:29:11.752Z,100.00
2022-11-03T18:31:57.500Z,100.00
2022-11-03T18:34:43.693Z,100.00
2022-11-03T18:37:31.000Z,100.00
2022-11-03T18:40:16.644Z,100.00
2022-11-03T18:43:11.329Z,100.00
2022-11-03T18:45:56.840Z,100.00
2022-11-03T18:48:42.239Z,100.00
2022-11-03T18:51:27.559Z,100.00
2022-11-03T18:54:14.848Z,100.00
2022-11-03T18:57:01.507Z,100.00
2022-11-03T18:59:46.787Z,100.00
2022-11-03T19:02:32.244Z,100.00
2022-11-03T19:05:18.922Z,100.00
2022-11-03T19:08:04.634Z,100.00
2022-11-03T19:10:51.062Z,100.00
2022-11-03T19:13:43.626Z,100.00
2022-11-03T19:16:28.979Z,100.00
2022-11-03T19:19:13.996Z,100.00
2022-11-03T19:21:59.653Z,100.00
2022-11-03T19:24:45.986Z,100.00
2022-11-03T19:27:33.741Z,100.00
2022-11-03T19:30:19.691Z,100.00
2022-11-03T19:33:06.654Z,100.00
2022-11-03T19:35:52.378Z,100.00
2022-11-03T19:38:38.304Z,100.00
2022-11-03T19:41:24.099Z,100.00
2022-11-03T19:44:12.510Z,100.00
2022-11-03T19:46:58.707Z,100.00
2022-11-03T19:49:47.192Z,100.00
2022-11-03T19:52:34.087Z,100.00
2022-11-03T19:55:19.919Z,100.00
2022-11-03T19:58:16.000Z,100.00
2022-11-03T20:01:08.234Z,100.00
2022-11-03T20:03:53.990Z,100.00
2022-11-03T20:06:39.540Z,100.00
2022-11-03T20:12:18.106Z,100.00
2022-11-03T20:15:26.854Z,100.00
2022-11-03T20:18:13.384Z,100.00
2022-11-03T20:20:59.744Z,100.00
2022-11-03T20:23:47.711Z,100.00
2022-11-03T20:26:37.144Z,100.00
2022-11-03T20:29:22.799Z,100.00
2022-11-03T20:32:12.353Z,100.00
2022-11-03T20:34:58.557Z,100.00
2022-11-03T20:37:46.391Z,100.00
2022-11-03T20:40:32.262Z,100.00
2022-11-03T20:43:28.783Z,100.00
2022-11-03T20:46:31.476Z,100.00
2022-11-03T20:49:16.256Z,100.00
2022-11-03T20:52:02.061Z,100.00
2022-11-03T20:54:47.252Z,100.00
2022-11-03T20:57:32.833Z,100.00
2022-11-03T21:00:24.279Z,100.00
2022-11-03T21:06:32.943Z,100.00
2022-11-03T21:09:18.754Z,100.00
2022-11-03T21:12:04.770Z,100.00
2022-11-03T21:14:50.227Z,100.00
2022-11-03T21:17:38.921Z,100.00
2022-11-03T21:20:24.383Z,100.00
2022-11-03T21:23:22.616Z,100.00
2022-11-03T21:26:11.293Z,100.00
2022-11-03T21:28:56.764Z,100.00
2022-11-03T21:31:42.035Z,100.00
2022-11-03T21:34:27.525Z,100.00
2022-11-03T21:37:17.057Z,100.00
2022-11-03T21:40:02.244Z,100.00
2022-11-03T21:42:48.335Z,100.00
2022-11-03T21:45:33.695Z,100.00
2022-11-03T21:48:26.559Z,100.00
2022-11-03T21:51:12.084Z,100.00
2022-11-03T21:53:57.140Z,100.00
2022-11-03T21:56:42.447Z,100.00
2022-11-03T21:59:27.773Z,100.00
2022-11-03T22:02:12.720Z,100.00
2022-11-03T22:04:58.135Z,100.00
2022-11-03T22:07:43.228Z,100.00
2022-11-03T22:10:28.900Z,100.00
2022-11-03T22:13:14.430Z,100.00
2022-11-03T22:15:59.611Z,100.00
2022-11-03T22:18:44.954Z,100.00
2022-11-03T22:21:30.371Z,100.00
2022-11-03T22:24:16.139Z,100.00
2022-11-03T22:27:01.456Z,100.00
2022-11-03T22:29:47.123Z,100.00
2022-11-03T22:32:32.798Z,100.00
2022-11-03T22:35:17.909Z,100.00
2022-11-03T22:38:05.578Z,100.00
2022-11-03T22:40:54.030Z,100.00
2022-11-03T22:43:39.087Z,100.00
2022-11-03T22:46:24.223Z,100.00
2022-11-03T22:49:09.825Z,100.00
2022-11-03T22:51:55.468Z,100.00
2022-11-03T22:54:40.944Z,100.00
2022-11-03T22:57:26.542Z,100.00
2022-11-03T23:00:14.297Z,100.00
2022-11-03T23:02:59.687Z,100.00
2022-11-03T23:05:45.006Z,100.00
2022-11-03T23:08:32.531Z,100.00
2022-11-03T23:11:21.179Z,100.00
2022-11-03T23:14:09.297Z,100.00
2022-11-03T23:16:54.511Z,100.00
2022-11-03T23:19:39.642Z,100.00
2022-11-03T23:22:24.854Z,100.00
2022-11-03T23:25:10.515Z,100.00
2022-11-03T23:27:56.980Z,100.00
2022-11-03T23:30:42.605Z,100.00
2022-11-03T23:33:28.748Z,100.00
2022-11-03T23:36:15.803Z,100.00
2022-11-03T23:39:01.717Z,100.00
2022-11-03T23:41:48.761Z,100.00
2022-11-03T23:44:34.070Z,100.00
2022-11-03T23:47:19.663Z,100.00
2022-11-03T23:50:05.314Z,100.00
2022-11-03T23:52:50.623Z,100.00
2022-11-03T23:55:35.710Z,100.00
2022-11-03T23:58:21.596Z,100.00
